Custom file does not exist C:\wdisplay\webfiles\testtags.txt Borgafjälls vädersida - Nearby METAR Reports

Nearby METAR Reports

 

KSJC - San Jose, California, USA
Distance from station: NO 14km
Uppdaterad: 29/01/2022 10:53
Klart
Klart
 Vind frn calm
Vind: Vindstilla
Temperatur: 8°C
Daggpunkt: 3°C
Luftfuktighet: 71%
Barometer: 1024 hPa
Clouds: Klart
Visibility: 13 km
2022/01/29 09:53 KSJC 290953Z AUTO 00000KT 8SM CLR 08/03 A3024 RMK AO2 SLP238 T00780028
KNUQ - Moffett Nas/Mtn, California, USA
Distance from station: N 14km
Uppdaterad: 29/01/2022 11:15
Klart
Klart
 Vind frn calm
Vind: Vindstilla
Temperatur: 7°C
Daggpunkt: 3°C
Luftfuktighet: 76%
Barometer: 1024 hPa
Clouds: Klart
Visibility: 16 km
2022/01/29 10:15 KNUQ 291015Z AUTO 00000KT 10SM CLR 07/03 A3024 RMK AO2
 
KPAO - Palo Alto, California, USA
Distance from station: NNV 23km
Uppdaterad: 29/01/2022 05:47
NOT Current
Klart
Klart
 Vind frn calm
Vind: Vindstilla
Temperatur: 8°C
Daggpunkt: 5°C
Luftfuktighet: 82%
Barometer: 1023.7 hPa
Clouds: Klart
Visibility: 16 km
2022/01/29 04:47 KPAO 290447Z 00000KT 10SM SKC 08/05 A3023 RMK LAST
KRHV - San Jose/Reid, California, USA
Distance from station: ONO 19km
Uppdaterad: 29/01/2022 06:55
NOT Current
Delvis molnigt
Delvis molnigt
 Vind frn calm
Vind: Vindstilla
Temperatur: 9°C
Daggpunkt: 5°C
Luftfuktighet: 76%
Barometer: 1024 hPa
Clouds: Delvis molnigt
Visibility: 16 km
Cloud details: Delvis molnigt 3048 m
2022/01/29 05:55 KRHV 290555Z 00000KT 10SM SCT100 09/05 A3024 RMK LAST
 
KOAK - Oakland, California, USA
Distance from station: NNV 50km
Uppdaterad: 29/01/2022 10:53
Delvis molnigt
Delvis molnigt
 Vind frn calm
Vind: Vindstilla
Temperatur: 6°C
Daggpunkt: 4°C
Luftfuktighet: 87%
Barometer: 1024 hPa
Clouds: Delvis molnigt
Visibility: 14 km
Cloud details: Delvis molnigt 4877 m
2022/01/29 09:53 KOAK 290953Z 00000KT 9SM SCT160 06/04 A3024 RMK AO2 SLP238 T00610044 $
KSQL - San Carlos Airpo, California, USA
Distance from station: NV 34km
Uppdaterad: 29/01/2022 11:15
Klart
Klart
 Vind frn calm
Vind: Vindstilla
Temperatur: 7°C
Daggpunkt: 4°C
Luftfuktighet: 81%
Barometer: 1024 hPa
Clouds: Klart
Visibility: 13 km
2022/01/29 10:15 KSQL 291015Z AUTO 00000KT 8SM CLR 07/04 A3024 RMK AO2
 
KSFO - San Francisco, California, USA
Distance from station: NV 49km
Uppdaterad: 29/01/2022 10:56
Delvis molnigt
Delvis molnigt
 Vind frn SSV
Vind: SSV 6 km/h
Temperatur: 9°C
Daggpunkt: 5°C
Luftfuktighet: 76%
Barometer: 1023.7 hPa
Clouds: Delvis molnigt
Visibility: 16 km
Cloud details: Delvis molnigt 4877 m
2022/01/29 09:56 KSFO 290956Z 21003KT 10SM SCT160 09/05 A3023 RMK AO2 SLP235 T00890050
KE16 - San Martin, California, USA
Distance from station: OSO 43km
Uppdaterad: 29/01/2022 11:10
Ltt regn, Few clouds
Ltt regn, Few clouds
 Vind frn calm
Vind: Vindstilla
Temperatur: 3°C
Daggpunkt: 2°C
Luftfuktighet: 93%
Barometer: 1024.7 hPa
Summering: Ltt regn
Clouds: Few Clouds
Visibility: 16 km
Cloud details: Few Clouds 671 m
2022/01/29 10:10 KE16 291010Z AUTO 00000KT 10SM -RA FEW022 03/02 A3026 RMK AO2
 
KWVI - Watsonville, California, USA
Distance from station: SSO 44km
Uppdaterad: 29/01/2022 10:53
Klart
Klart
 Vind frn calm
Vind: Vindstilla
Temperatur: 7°C
Daggpunkt: 2°C
Luftfuktighet: 71%
Barometer: 1023.7 hPa
Clouds: Klart
Visibility: 16 km
2022/01/29 09:53 KWVI 290953Z AUTO 00000KT 10SM CLR 07/02 A3023 RMK AO2 SLP235 T00670017
KHAF - Half Moon Bay, California, USA
Distance from station: VNV 50km
Uppdaterad: 29/01/2022 11:15
Klart
Klart
 Vind frn NO
Vind: NO 9 km/h
Temperatur: 8°C
Wind Chill: 6°C
Daggpunkt: 2°C
Luftfuktighet: 66%
Barometer: 1023 hPa
Clouds: Klart
Visibility: 14 km
2022/01/29 10:15 KHAF 291015Z AUTO 04005KT 9SM CLR 08/02 A3021 RMK AO2
 
KHWD - Hayward, California, USA
Distance from station: N 44km
Uppdaterad: 29/01/2022 10:54
Klart
Klart
 Vind frn calm
Vind: Vindstilla
Temperatur: 9°C
Daggpunkt: 4°C
Luftfuktighet: 71%
Barometer: 1023.7 hPa
Clouds: Klart
Visibility: 13 km
2022/01/29 09:54 KHWD 290954Z 00000KT 8SM CLR 09/04 A3023 RMK AO2 SLP246 T00890039
KLVK - Livermore, California, USA
Distance from station: NNO 51km
Uppdaterad: 29/01/2022 10:53
Klart
Klart
 Vind frn calm
Vind: Vindstilla
Temperatur: 3°C
Daggpunkt: 1°C
Luftfuktighet: 87%
Barometer: 1024 hPa
Clouds: Klart
Visibility: 11 km
2022/01/29 09:53 KLVK 290953Z AUTO 00000KT 7SM CLR 03/01 A3024 RMK AO2 SLP239 T00280011